createdAt,value
2023-04-30T00:00:29.040Z,10.9
2023-04-30T00:06:21.754Z,11.2
2023-04-30T00:12:18.635Z,10.9
2023-04-30T00:18:12.307Z,11.1
2023-04-30T00:24:05.362Z,11
2023-04-30T00:29:58.696Z,10.9
2023-04-30T00:35:50.953Z,10.8
2023-04-30T00:41:45.098Z,10.8
2023-04-30T00:47:38.357Z,10.8
2023-04-30T00:53:34.489Z,10.8
2023-04-30T00:59:26.949Z,10.7
2023-04-30T01:05:20.478Z,10.8
2023-04-30T01:11:12.717Z,10.6
2023-04-30T01:42:05.502Z,10.2
2023-04-30T01:48:05.280Z,10
2023-04-30T01:54:22.633Z,9.8
2023-04-30T02:00:14.957Z,9.8
2023-04-30T02:12:26.018Z,9.7
2023-04-30T02:18:32.753Z,9.6
2023-04-30T02:43:08.459Z,9
2023-04-30T02:49:10.316Z,8.9
2023-04-30T02:55:04.762Z,9.1
2023-04-30T03:01:00.829Z,9
2023-04-30T03:06:55.129Z,8.8
2023-04-30T03:12:55.803Z,8.7
2023-04-30T03:18:52.085Z,8.6
2023-04-30T03:25:00.839Z,8.6
2023-04-30T03:31:15.927Z,8.4
2023-04-30T03:37:39.765Z,8.4
2023-04-30T03:43:40.232Z,8.7
2023-04-30T03:49:32.511Z,8.4
2023-04-30T03:55:55.287Z,8.5
2023-04-30T04:01:57.856Z,8.5
2023-04-30T04:07:59.245Z,8.4
2023-04-30T04:14:06.320Z,8.4
2023-04-30T04:19:59.690Z,8.4
2023-04-30T04:25:51.277Z,8.2
2023-04-30T04:31:54.699Z,8
2023-04-30T04:37:44.799Z,8.3
2023-04-30T04:44:01.211Z,8.1
2023-04-30T04:49:56.769Z,8.4
2023-04-30T04:55:56.808Z,8.2
2023-04-30T05:01:49.578Z,8.1
2023-04-30T05:07:42.182Z,8.1
2023-04-30T05:45:18.039Z,8.8
2023-04-30T05:51:12.202Z,8.5
2023-04-30T05:57:03.561Z,8.8
2023-04-30T06:02:57.189Z,8.8
2023-04-30T06:23:18.390Z,8.8
2023-04-30T06:29:11.917Z,9.1
2023-04-30T06:35:03.668Z,9.3
2023-04-30T06:40:56.358Z,9
2023-04-30T06:46:48.521Z,8.8
2023-04-30T06:52:46.587Z,8.8
2023-04-30T06:58:39.870Z,9
2023-04-30T07:04:32.486Z,9.1
2023-04-30T07:23:03.995Z,9.6
2023-04-30T07:29:05.206Z,10.1
2023-04-30T07:35:26.099Z,10.2
2023-04-30T07:47:59.650Z,10.8
2023-04-30T07:54:02.679Z,10.8
2023-04-30T07:59:56.182Z,11.1
2023-04-30T08:05:49.311Z,11.2
2023-04-30T08:11:39.462Z,11.2
2023-04-30T08:17:30.153Z,11.3
2023-04-30T08:23:22.338Z,11.7
2023-04-30T08:29:14.738Z,11.9
2023-04-30T08:35:07.614Z,12.2
2023-04-30T08:41:02.370Z,12.4
2023-04-30T08:46:58.019Z,12.7
2023-04-30T08:52:50.405Z,12.8
2023-04-30T08:58:43.367Z,13
2023-04-30T09:04:35.953Z,13
2023-04-30T09:10:27.806Z,13.4
2023-04-30T09:16:21.726Z,13.6
2023-04-30T09:22:15.794Z,13.8
2023-04-30T09:28:09.155Z,14.2
2023-04-30T09:34:03.439Z,14.1
2023-04-30T09:39:59.276Z,14.4
2023-04-30T09:45:53.786Z,14.6
2023-04-30T09:51:45.901Z,14.7
2023-04-30T09:57:38.610Z,14.7
2023-04-30T10:03:30.953Z,15.5
2023-04-30T10:09:22.990Z,15.5
2023-04-30T10:15:15.109Z,16
2023-04-30T10:21:07.496Z,15.7
2023-04-30T10:26:58.820Z,16
2023-04-30T10:32:49.354Z,16
2023-04-30T10:38:42.296Z,16.7
2023-04-30T10:44:37.049Z,17
2023-04-30T10:50:28.953Z,17.3
2023-04-30T10:56:20.761Z,17.2
2023-04-30T11:02:12.678Z,17.2
2023-04-30T11:08:04.517Z,17.3
2023-04-30T11:13:55.706Z,17.4
2023-04-30T11:19:47.284Z,17.4
2023-04-30T11:25:42.384Z,17.2
2023-04-30T11:31:34.084Z,17.6
2023-04-30T11:37:26.464Z,17.3
2023-04-30T11:43:28.895Z,17.7
2023-04-30T11:49:21.364Z,17.9
2023-04-30T11:55:13.399Z,18.3
2023-04-30T12:01:08.849Z,18.1
2023-04-30T12:06:59.431Z,18.2
2023-04-30T12:12:52.906Z,18.5
2023-04-30T12:18:42.882Z,18.2
2023-04-30T12:24:37.505Z,19.2
2023-04-30T12:30:28.832Z,18.8
2023-04-30T12:36:21.006Z,18.6
2023-04-30T12:42:13.042Z,19.1
2023-04-30T12:48:04.835Z,19.1
2023-04-30T12:53:56.982Z,19
2023-04-30T12:59:48.799Z,18.9
2023-04-30T13:05:42.521Z,19.2
2023-04-30T13:11:34.581Z,19.1
2023-04-30T13:17:26.570Z,19.1
2023-04-30T13:23:19.549Z,19.2
2023-04-30T13:29:11.552Z,19.1
2023-04-30T13:35:04.117Z,18.9
2023-04-30T13:40:56.436Z,19.2
2023-04-30T13:46:47.846Z,19.2
2023-04-30T13:52:39.467Z,19.1
2023-04-30T13:58:32.958Z,19.2
2023-04-30T14:04:24.216Z,19.3
2023-04-30T14:10:15.706Z,19.2
2023-04-30T14:16:07.389Z,19.4
2023-04-30T14:21:59.828Z,19.6
2023-04-30T14:27:51.349Z,19.4
2023-04-30T14:33:43.955Z,19.3
2023-04-30T14:39:35.450Z,19.3
2023-04-30T14:45:28.121Z,19.5
2023-04-30T14:51:19.870Z,19.5
2023-04-30T14:57:11.769Z,19.3
2023-04-30T15:03:04.241Z,19.1
2023-04-30T15:08:57.312Z,19.4
2023-04-30T15:14:48.962Z,19.6
2023-04-30T15:20:40.486Z,19.4
2023-04-30T15:26:32.687Z,19.4
2023-04-30T15:32:24.269Z,19.1
2023-04-30T15:38:16.555Z,19.1
2023-04-30T15:44:08.891Z,19
2023-04-30T15:50:02.662Z,19.1
2023-04-30T15:55:52.023Z,19.1
2023-04-30T16:01:44.295Z,18.9
2023-04-30T16:07:36.769Z,18.9
2023-04-30T16:13:32.193Z,18.9
2023-04-30T16:19:25.516Z,18.9
2023-04-30T16:25:16.942Z,18.8
2023-04-30T16:31:09.896Z,18.9
2023-04-30T16:37:01.684Z,19.1
2023-04-30T16:42:55.805Z,19.2
2023-04-30T16:48:48.514Z,19.3
2023-04-30T16:54:45.856Z,19.4
2023-04-30T17:00:41.893Z,19.3
2023-04-30T17:06:33.957Z,19.3
2023-04-30T17:12:26.893Z,19.3
2023-04-30T17:18:18.981Z,19.1
2023-04-30T17:24:10.488Z,19.1
2023-04-30T17:30:02.171Z,19
2023-04-30T17:35:54.509Z,18.9
2023-04-30T17:41:45.940Z,18.8
2023-04-30T17:47:38.318Z,18.7
2023-04-30T17:53:31.381Z,18.6
2023-04-30T17:59:26.077Z,18.5
2023-04-30T18:05:19.822Z,18.5
2023-04-30T18:11:16.686Z,18.2
2023-04-30T18:17:08.496Z,18.2
2023-04-30T18:22:59.793Z,18
2023-04-30T18:28:54.682Z,17.6
2023-04-30T18:34:45.842Z,17.5
2023-04-30T18:40:37.107Z,17.3
2023-04-30T18:46:30.658Z,17
2023-04-30T18:52:22.076Z,16.8
2023-04-30T18:58:15.358Z,16.6
2023-04-30T19:04:07.128Z,16
2023-04-30T19:09:59.019Z,16
2023-04-30T19:15:50.165Z,15.6
2023-04-30T19:21:41.453Z,15.5
2023-04-30T19:27:34.765Z,15.4
2023-04-30T19:33:27.009Z,15.2
2023-04-30T19:39:20.762Z,15.1
2023-04-30T19:45:12.350Z,14.9
2023-04-30T19:51:04.222Z,14.7
2023-04-30T19:56:58.092Z,14.6
2023-04-30T20:02:49.698Z,14.3
2023-04-30T20:08:43.751Z,14.3
2023-04-30T20:15:44.968Z,14.1
2023-04-30T20:21:37.526Z,13.9
2023-04-30T20:27:29.248Z,14
2023-04-30T20:33:21.739Z,14
2023-04-30T20:39:13.188Z,14
2023-04-30T20:45:06.154Z,14
2023-04-30T20:50:57.923Z,14
2023-04-30T20:56:50.699Z,14
2023-04-30T21:02:42.061Z,14
2023-04-30T21:08:34.135Z,14
2023-04-30T21:14:25.393Z,14
2023-04-30T21:20:18.513Z,13.7
2023-04-30T21:26:12.589Z,13.8
2023-04-30T21:32:04.810Z,13.7
2023-04-30T21:37:58.081Z,13.6
2023-04-30T21:43:49.590Z,13.4
2023-04-30T21:49:40.633Z,13.4
2023-04-30T21:55:33.994Z,13.4
2023-04-30T22:01:24.539Z,13.5
2023-04-30T22:07:14.602Z,13.6
2023-04-30T22:13:03.716Z,13.6
2023-04-30T22:18:54.726Z,13.7
2023-04-30T22:24:47.685Z,13.5
2023-04-30T22:30:38.713Z,13.5
2023-04-30T22:36:29.882Z,13.6
2023-04-30T22:42:20.948Z,13.5
2023-04-30T22:48:11.957Z,13.7
2023-04-30T22:54:03.691Z,13.8
2023-04-30T22:59:55.404Z,13.8
2023-04-30T23:05:47.415Z,13.5
2023-04-30T23:11:39.220Z,13.6
2023-04-30T23:17:30.813Z,13.7
2023-04-30T23:23:24.612Z,13.8
2023-04-30T23:29:16.451Z,13.7
2023-04-30T23:35:08.146Z,13.8
2023-04-30T23:41:00.085Z,13.8
2023-04-30T23:46:52.252Z,13.9
2023-04-30T23:52:43.090Z,13.7
2023-04-30T23:58:34.260Z,13.7
